M I D A S
Marine Information and Data Acquisition System
Tripno 748 of the Zeeleeuw from 2004-07-14 06:30:53 to 2004-07-14 14:45:08
Back to CruiseResearch ActivitiesStationsMapUnderway DataData graphs

EquipmentUnitsComment
TimeDGPSUTC
LatitudeDGPSDM.mWGS84
LongitudeDGPSDM.mWGS84
TemperatureSBE03/SBE38deg celciusITS90
ConductivitySBE21S/mITS90
SalinitySBE21 Practical Salinity Units
ChlorophylAChelsea fluorimeterg/lCalibrated in Aceton
Missing or incorrect values are displayed as -999
Sea surface data collected by the RV Zeeleeuw from 2004-07-14 06:30:53 to 2004-07-14 14:45:08
Time Latitude Longitude Temperature Conductivity Salinity ChlorophylA
2004-07-14 06:31:55 51°13.633 2°55.965 20.948633 4.169789 30.571413 -0.680121
2004-07-14 06:32:55 51°13.66 2°55.849 20.941007 4.169684 30.572125 -0.646411
2004-07-14 06:33:55 51°13.661 2°55.755 21.001873 4.169578 30.571787 -0.646411
2004-07-14 06:34:55 51°13.719 2°55.75 21.016074 4.169051 30.571673 -0.646411
2004-07-14 06:35:55 51°13.81 2°55.651 20.913171 4.169262 30.569725 -0.646411
2004-07-14 06:36:55 51°13.924 2°55.56 20.965799 4.169157 30.572535 -0.680121
2004-07-14 06:37:55 51°14.046 2°55.472 20.973302 4.169051 30.572722 -0.646411
2004-07-14 06:38:55 51°14.193 2°55.354 20.989744 4.16884 30.572047 -0.646411
2004-07-14 06:39:55 51°14.325 2°55.143 19.578218 4.020812 29.489046 0.499708
2004-07-14 06:40:55 51°14.461 2°54.88 17.426747 4.220947 31.885982 1.443571
2004-07-14 06:41:53 51°14.587 2°54.598 17.322792 4.256807 32.518105 1.443571
2004-07-14 06:42:53 51°14.71 2°54.295 17.248786 4.304265 33.001753 0.836802
2004-07-14 06:43:53 51°14.815 2°53.979 17.311816 4.327677 33.221638 0.39858
2004-07-14 06:44:56 51°14.919 2°53.642 17.278541 4.359739 33.478207 0.465999
2004-07-14 06:45:54 51°15.015 2°53.33 17.246008 4.351935 33.440765 0.97164
2004-07-14 06:46:56 51°15.108 2°52.99 17.220534 4.305742 33.069291 1.106477
2004-07-14 06:47:54 51°15.188 2°52.665 17.206593 4.35067 33.479483 1.072768
2004-07-14 06:48:54 51°15.253 2°52.316 17.190206 4.354783 33.528227 0.97164
2004-07-14 06:49:54 51°15.265 2°51.952 17.182159 4.370287 33.666629 0.836802
2004-07-14 06:50:54 51°15.235 2°51.587 17.19345 4.375033 33.716685 0.735674
2004-07-14 06:51:59 51°15.2 2°51.192 17.198885 4.39233 33.844996 0.600836
2004-07-14 06:52:59 51°15.163 2°50.828 17.196526 4.398236 33.90267 0.499708
2004-07-14 06:54:01 51°15.117 2°50.457 17.197326 4.40351 33.948771 0.499708
2004-07-14 06:55:04 51°15.056 2°50.082 17.191554 4.40467 33.961239 0.432289
2004-07-14 06:56:04 51°15.013 2°49.719 17.190164 4.406147 33.978286 0.432289
2004-07-14 06:57:04 51°14.973 2°49.356 17.186793 4.407624 33.992876 0.39858
2004-07-14 06:58:08 51°14.931 2°48.971 17.179462 4.40678 33.989288 0.364871
2004-07-14 06:59:06 51°14.894 2°48.625 17.170907 4.405936 33.986932 0.364871
2004-07-14 07:00:08 51°14.854 2°48.256 17.172762 4.406253 33.992743 0.364871
2004-07-14 07:01:08 51°14.816 2°47.899 17.167915 4.40794 34.00916 0.331161
2004-07-14 07:02:08 51°14.779 2°47.543 17.164712 4.409733 34.026491 0.297452
2004-07-14 07:03:06 51°14.744 2°47.2 17.157336 4.411526 34.049379 0.297452
2004-07-14 07:04:06 51°14.706 2°46.844 17.145111 4.413636 34.075013 0.297452
2004-07-14 07:05:08 51°14.669 2°46.477 17.134275 4.416906 34.1144 0.297452
2004-07-14 07:06:08 51°14.631 2°46.13 17.128836 4.420914 34.154003 0.263742
2004-07-14 07:07:08 51°14.595 2°45.785 17.130986 4.422918 34.174432 0.297452
2004-07-14 07:08:08 51°14.559 2°45.438 17.123311 4.425238 34.193879 0.263742
2004-07-14 07:09:06 51°14.525 2°45.097 17.122341 4.427032 34.213112 0.230033
2004-07-14 07:10:08 51°14.487 2°44.731 17.111544 4.428614 34.234876 0.196324
2004-07-14 07:11:08 51°14.45 2°44.379 17.102433 4.430934 34.260553 0.095195
2004-07-14 07:12:06 51°14.414 2°44.036 17.100113 4.431989 34.275906 -0.005933
2004-07-14 07:13:08 51°14.38 2°43.668 17.090114 4.434626 34.302472 -0.005933
2004-07-14 07:14:08 51°14.358 2°43.311 17.090114 4.437158 34.328757 -0.17448
2004-07-14 07:15:06 51°14.342 2°42.963 17.098088 4.44201 34.369533 -0.376736
2004-07-14 07:16:12 51°14.324 2°42.572 17.100155 4.44433 34.385885 -0.343027
2004-07-14 07:17:12 51°14.309 2°42.216 17.10412 4.442326 34.367279 -0.241899
2004-07-14 07:18:12 51°14.294 2°41.864 17.094628 4.441588 34.359636 -0.241899
2004-07-14 07:19:12 51°14.279 2°41.515 17.069056 4.441482 34.373083 -0.275608
2004-07-14 07:20:12 51°14.265 2°41.166 17.035453 4.441166 34.39347 -0.309317
2004-07-14 07:21:12 51°14.252 2°40.818 17.01045 4.439057 34.400836 -0.376736
2004-07-14 07:22:12 51°14.238 2°40.471 17.002424 4.438214 34.408549 -0.309317
2004-07-14 07:23:12 51°14.225 2°40.125 16.982269 4.437054 34.411641 -0.241899
2004-07-14 07:24:12 51°14.212 2°39.782 16.958135 4.435472 34.415464 -0.17448
2004-07-14 07:25:12 51°14.198 2°39.437 16.940759 4.434628 34.425082 -0.17448
2004-07-14 07:26:12 51°14.183 2°39.092 16.945156 4.434207 34.434608 -0.17448
2004-07-14 07:27:17 51°14.132 2°38.723 16.98134 4.433573 34.403364 -0.275608
2004-07-14 07:28:17 51°14.073 2°38.384 16.997185 4.434206 34.392557 -0.309317
2004-07-14 07:29:16 51°14.012 2°38.051 17.00838 4.434417 34.380604 -0.376736
2004-07-14 07:30:17 51°13.939 2°37.711 17.006817 4.436104 34.391493 -0.343027
2004-07-14 07:31:16 51°13.871 2°37.381 16.998284 4.437053 34.399732 -0.275608
2004-07-14 07:32:24 51°13.754 2°37.022 16.98958 4.43737 34.41188 -0.343027
2004-07-14 07:33:24 51°13.641 2°36.716 16.978381 4.437792 34.424324 -0.309317
2004-07-14 07:34:24 51°13.528 2°36.408 16.959319 4.434628 34.40939 -0.343027
2004-07-14 07:35:22 51°13.414 2°36.118 16.942408 4.436105 34.436659 -0.376736
2004-07-14 07:36:21 51°13.297 2°35.827 16.931455 4.435472 34.444355 -0.343027
2004-07-14 07:37:22 51°13.174 2°35.526 16.928411 4.436 34.455857 -0.309317
2004-07-14 07:38:24 51°13.026 2°35.253 16.933908 4.437054 34.462513 -0.208189
2004-07-14 07:39:24 51°12.872 2°34.999 16.926254 4.438109 34.472943 -0.107061
2004-07-14 07:40:24 51°12.717 2°34.751 16.929172 4.43832 34.474777 -0.073352
2004-07-14 07:41:24 51°12.562 2°34.502 16.929975 4.42619 34.364931 -0.073352
2004-07-14 07:42:22 51°12.413 2°34.261 16.929172 4.435683 34.451219 -0.073352
2004-07-14 07:43:23 51°12.257 2°34.009 16.916568 4.436422 34.460784 -0.107061
2004-07-14 07:44:23 51°12.104 2°33.76 16.90925 4.436105 34.466842 -0.073352
2004-07-14 07:45:23 51°11.97 2°33.538 16.903877 4.433996 34.455415 -0.14077
2004-07-14 07:46:23 51°11.925 2°33.422 16.898673 4.434523 34.465039 -0.14077
2004-07-14 07:47:23 51°11.904 2°33.377 16.899815 4.436422 34.484078 -0.14077
2004-07-14 07:48:23 51°11.888 2°33.381 16.904469 4.437055 34.485175 -0.14077
2004-07-14 07:49:24 51°11.881 2°33.409 16.905231 4.437688 34.489422 -0.14077
2004-07-14 07:50:24 51°11.878 2°33.442 16.901423 4.43716 34.486723 -0.073352
2004-07-14 07:51:23 51°11.86 2°33.476 16.900027 4.436949 34.487408 -0.039642
2004-07-14 07:52:24 51°11.828 2°33.486 16.89368 4.436844 34.48775 -0.073352
2004-07-14 07:53:23 51°11.787 2°33.471 16.889364 4.436211 34.487914 -0.107061
2004-07-14 07:54:23 51°11.745 2°33.431 16.885344 4.436422 34.493532 -0.107061
2004-07-14 07:55:22 51°11.709 2°33.372 16.88145 4.435684 34.490257 -0.14077
2004-07-14 07:56:23 51°11.676 2°33.301 16.881577 4.435684 34.491518 -0.17448
2004-07-14 07:57:23 51°11.646 2°33.229 16.879588 4.435579 34.492491 -0.14077
2004-07-14 07:58:22 51°11.613 2°33.164 16.87908 4.435789 34.493697 -0.241899
2004-07-14 07:59:23 51°11.579 2°33.101 16.879758 4.435895 34.494616 -0.241899
2004-07-14 08:00:23 51°11.544 2°33.038 16.874298 4.435895 34.495877 -0.208189
2004-07-14 08:01:23 51°11.509 2°32.979 16.876075 4.43579 34.497481 -0.208189
2004-07-14 08:02:24 51°11.478 2°32.915 16.868118 4.435684 34.500978 -0.208189
2004-07-14 08:03:27 51°11.446 2°32.848 16.863208 4.435368 34.502008 -0.208189
2004-07-14 08:04:26 51°11.415 2°32.786 16.856096 4.434946 34.50212 -0.241899
2004-07-14 08:05:27 51°11.385 2°32.719 16.849957 4.434419 34.503837 -0.275608
2004-07-14 08:06:27 51°11.355 2°32.657 16.843563 4.433891 34.506187 -0.275608
2004-07-14 08:07:27 51°11.325 2°32.598 16.834755 4.433575 34.508482 -0.309317
2004-07-14 08:08:26 51°11.293 2°32.551 16.823828 4.433259 34.512673 -0.241899
2004-07-14 08:09:27 51°11.26 2°32.503 16.820312 4.432731 34.515027 -0.275608
2004-07-14 08:10:32 51°11.226 2°32.452 16.813534 4.432099 34.516462 -0.241899
2004-07-14 08:11:31 51°11.199 2°32.399 16.808112 4.431361 34.516979 -0.208189
2004-07-14 08:12:31 51°11.169 2°32.35 16.79218 4.431044 34.519279 -0.241899
2004-07-14 08:13:32 51°11.139 2°32.298 16.780187 4.430306 34.52296 -0.241899
2004-07-14 08:14:32 51°11.109 2°32.248 16.769675 4.429462 34.527624 -0.17448
2004-07-14 08:15:32 51°11.079 2°32.198 16.758059 4.428619 34.530391 -0.14077
2004-07-14 08:16:32 51°11.048 2°32.154 16.747544 4.427775 34.53126 -0.17448
2004-07-14 08:17:32 51°11.018 2°32.107 16.734991 4.427142 34.535239 -0.107061
2004-07-14 08:18:32 51°10.987 2°32.059 16.725109 4.426404 34.5383 -0.073352
2004-07-14 08:19:31 51°10.957 2°32.014 16.726763 4.426193 34.540262 -0.005933
2004-07-14 08:20:31 51°10.928 2°31.969 16.719213 4.426088 34.542512 0.095195
2004-07-14 08:21:32 51°10.897 2°31.921 16.719807 4.426404 34.546545 0.162614
2004-07-14 08:22:31 51°10.868 2°31.885 16.727569 4.426932 34.548615 0.196324
2004-07-14 08:23:32 51°10.841 2°31.846 16.726593 4.427248 34.55138 0.263742
2004-07-14 08:24:32 51°10.817 2°31.799 16.730156 4.427565 34.550338 0.297452
2004-07-14 08:25:32 51°10.79 2°31.751 16.739741 4.428514 34.553556 0.364871
2004-07-14 08:26:32 51°10.764 2°31.704 16.744618 4.429146 34.552107 0.364871
2004-07-14 08:27:30 51°10.744 2°31.654 16.754243 4.429885 34.552848 0.364871
2004-07-14 08:28:36 51°10.74 2°31.59 16.762511 4.431045 34.554737 0.331161
2004-07-14 08:29:35 51°10.752 2°31.535 16.765181 4.431361 34.55433 0.297452
2004-07-14 08:30:34 51°10.781 2°31.485 16.768107 4.432099 34.559508 0.263742
2004-07-14 08:31:36 51°10.829 2°31.458 16.769166 4.432205 34.557259 0.297452
2004-07-14 08:32:36 51°10.868 2°31.463 16.76675 4.43115 34.549953 0.230033
2004-07-14 08:33:36 51°10.896 2°31.481 16.762723 4.431572 34.556172 0.297452
2004-07-14 08:34:36 51°10.932 2°31.503 16.755007 4.431572 34.560609 0.364871
2004-07-14 08:35:36 51°10.992 2°31.555 16.752166 4.430939 34.556986 0.364871
2004-07-14 08:36:36 51°11.058 2°31.637 16.741692 4.430518 34.55774 0.331161
2004-07-14 08:37:34 51°11.113 2°31.725 16.736179 4.429252 34.556199 0.263742
2004-07-14 08:38:35 51°11.172 2°31.798 16.735373 4.428408 34.554537 0.263742
2004-07-14 08:39:36 51°11.214 2°31.874 16.730156 4.428092 34.551773 0.263742
2004-07-14 08:40:36 51°11.238 2°31.961 16.727569 4.42767 34.549356 0.196324
2004-07-14 08:41:36 51°11.254 2°32.053 16.724812 4.426721 34.546772 0.263742
2004-07-14 08:42:36 51°11.272 2°32.147 16.723624 4.426721 34.547407 0.196324
2004-07-14 08:43:36 51°11.289 2°32.239 16.72197 4.42651 34.546833 0.196324
2004-07-14 08:44:36 51°11.307 2°32.332 16.720443 4.426193 34.543433 0.196324
2004-07-14 08:45:36 51°11.328 2°32.421 16.720358 4.425877 34.541303 0.128905
2004-07-14 08:46:36 51°11.352 2°32.505 16.721885 4.425772 34.539747 0.061486
2004-07-14 08:47:36 51°11.371 2°32.592 16.717898 4.425561 34.539807 -0.005933
2004-07-14 08:48:36 51°11.391 2°32.678 16.717049 4.425139 34.538024 -0.005933
2004-07-14 08:49:36 51°11.415 2°32.758 16.713104 4.424928 34.539987 -0.107061
2004-07-14 08:50:34 51°11.444 2°32.832 16.719891 4.424611 34.535319 -0.107061
2004-07-14 08:51:36 51°11.477 2°32.909 16.721461 4.424822 34.533356 -0.208189
2004-07-14 08:52:36 51°11.508 2°32.984 16.722267 4.424822 34.532088 -0.208189
2004-07-14 08:53:36 51°11.541 2°33.056 16.723243 4.424611 34.531513 -0.275608
2004-07-14 08:54:36 51°11.571 2°33.131 16.723752 4.424611 34.530245 -0.343027
2004-07-14 08:55:36 51°11.601 2°33.211 16.722267 4.4244 34.5265 -0.309317
2004-07-14 08:56:36 51°11.627 2°33.291 16.725703 4.424189 34.524657 -0.343027
2004-07-14 08:57:36 51°11.655 2°33.371 16.732913 4.424822 34.525114 -0.309317
2004-07-14 08:58:36 51°11.682 2°33.453 16.738639 4.424928 34.520965 -0.343027
2004-07-14 08:59:36 51°11.706 2°33.541 16.745593 4.425771 34.523265 -0.376736
2004-07-14 09:00:35 51°11.729 2°33.63 16.750512 4.425982 34.520672 -0.309317
2004-07-14 09:01:33 51°11.751 2°33.716 16.762384 4.426509 34.518309 -0.309317
2004-07-14 09:02:36 51°11.78 2°33.803 16.774126 4.427037 34.513416 -0.343027
2004-07-14 09:03:36 51°11.813 2°33.88 16.791333 4.428408 34.512724 -0.309317
2004-07-14 09:04:40 51°11.851 2°33.951 16.801333 4.429568 34.512092 -0.275608
2004-07-14 09:05:44 51°11.89 2°34.017 16.807646 4.430517 34.513415 -0.309317
2004-07-14 09:06:44 51°11.925 2°34.08 16.816966 4.430517 34.507725 -0.275608
2004-07-14 09:07:44 51°11.958 2°34.15 16.822938 4.431255 34.505946 -0.275608
2004-07-14 09:08:44 51°11.989 2°34.221 16.825395 4.431888 34.507671 -0.275608
2004-07-14 09:09:44 51°12.023 2°34.291 16.831028 4.432309 34.505663 -0.309317
2004-07-14 09:10:44 51°12.059 2°34.356 16.836195 4.43252 34.503712 -0.275608
2004-07-14 09:11:44 51°12.096 2°34.416 16.836025 4.432837 34.504575 -0.275608
2004-07-14 09:12:44 51°12.132 2°34.468 16.835221 4.432731 34.504918 -0.275608
2004-07-14 09:13:44 51°12.168 2°34.515 16.832002 4.432731 34.503655 -0.309317
2004-07-14 09:14:43 51°12.213 2°34.569 16.831663 4.432415 34.504056 -0.309317
2004-07-14 09:15:42 51°12.271 2°34.643 16.834543 4.432415 34.502793 -0.343027
2004-07-14 09:16:43 51°12.336 2°34.731 16.829418 4.431466 34.500204 -0.376736
2004-07-14 09:17:43 51°12.405 2°34.817 16.831409 4.431782 34.501067 -0.410446
2004-07-14 09:18:43 51°12.48 2°34.848 16.825607 4.431571 34.500491 -0.410446
2004-07-14 09:19:43 51°12.532 2°34.86 16.823065 4.431993 34.5048 -0.376736
2004-07-14 09:20:43 51°12.568 2°34.879 16.814424 4.430833 34.502268 -0.343027
2004-07-14 09:21:44 51°12.597 2°34.907 16.807434 4.430095 34.503414 -0.376736
2004-07-14 09:22:43 51°12.622 2°34.941 16.804553 4.429462 34.502952 -0.275608
2004-07-14 09:23:43 51°12.66 2°34.962 16.809171 4.429462 34.49916 -0.343027
2004-07-14 09:24:43 51°12.714 2°34.959 16.796418 4.429673 34.504792 -0.343027
2004-07-14 09:25:44 51°12.757 2°34.966 16.788366 4.42904 34.508124 -0.343027
2004-07-14 09:26:45 51°12.783 2°34.996 16.784849 4.428513 34.509849 -0.309317
2004-07-14 09:27:43 51°12.808 2°35.02 16.788154 4.428619 34.512034 -0.343027
2004-07-14 09:28:43 51°12.835 2°35.048 16.783154 4.428829 34.512609 -0.376736
2004-07-14 09:29:43 51°12.86 2°35.082 16.787646 4.429146 34.516002 -0.343027
2004-07-14 09:30:44 51°12.886 2°35.115 16.792307 4.429357 34.512782 -0.343027
2004-07-14 09:31:43 51°12.913 2°35.146 16.791078 4.429673 34.515542 -0.343027
2004-07-14 09:32:44 51°12.941 2°35.177 16.796884 4.4302 34.515714 -0.343027
2004-07-14 09:33:44 51°12.969 2°35.202 16.783535 4.429357 34.514679 -0.410446
2004-07-14 09:34:43 51°12.997 2°35.225 16.767428 4.427986 34.514105 -0.343027
2004-07-14 09:35:44 51°13.027 2°35.252 16.761917 4.427564 34.517385 -0.343027
2004-07-14 09:36:44 51°13.056 2°35.278 16.757211 4.426931 34.51566 -0.376736
2004-07-14 09:37:44 51°13.087 2°35.3 16.748986 4.426404 34.517388 -0.343027
2004-07-14 09:38:43 51°13.113 2°35.327 16.743685 4.425666 34.519176 -0.376736
2004-07-14 09:39:44 51°13.139 2°35.367 16.75895 4.425877 34.517851 -0.376736
2004-07-14 09:40:49 51°13.163 2°35.415 16.766708 4.427775 34.524925 -0.410446
2004-07-14 09:41:50 51°13.185 2°35.463 16.752335 4.422607 34.482978 -0.376736
2004-07-14 09:42:49 51°13.217 2°35.496 16.745721 4.426299 34.520268 -0.410446
2004-07-14 09:43:49 51°13.304 2°35.565 16.738045 4.426404 34.523089 -0.410446
2004-07-14 09:44:49 51°13.421 2°35.824 16.737451 4.42535 34.525917 -0.444155
2004-07-14 09:45:50 51°13.534 2°36.172 16.748986 4.42556 34.524591 -0.444155
2004-07-14 09:46:49 51°13.634 2°36.525 16.764588 4.426615 34.51923 -0.444155
2004-07-14 09:47:49 51°13.735 2°36.884 16.782857 4.426826 34.50841 -0.444155
2004-07-14 09:48:49 51°13.836 2°37.24 16.796799 4.427775 34.502143 -0.444155
2004-07-14 09:49:50 51°13.943 2°37.6 16.821752 4.428618 34.493698 -0.444155
2004-07-14 09:50:49 51°14.002 2°37.965 16.8638 4.430516 34.473628 -0.410446
2004-07-14 09:51:49 51°14.042 2°38.349 16.9065 4.432414 34.461796 -0.343027
2004-07-14 09:52:49 51°14.025 2°38.72 16.950948 4.436316 34.449804 -0.376736
2004-07-14 09:53:50 51°13.863 2°38.955 16.975719 4.438214 34.44117 -0.343027
2004-07-14 09:54:49 51°13.682 2°38.883 16.950822 4.438003 34.421765 -0.343027
2004-07-14 09:55:48 51°13.518 2°38.714 16.9419 4.437476 34.449832 -0.309317
2004-07-14 09:56:50 51°13.344 2°38.54 16.941224 4.43948 34.472282 -0.275608
2004-07-14 09:57:48 51°13.182 2°38.376 16.939659 4.441379 34.48627 -0.14077
2004-07-14 09:58:49 51°13.013 2°38.201 16.933401 4.441168 34.488212 -0.107061
2004-07-14 09:59:50 51°12.843 2°38.024 16.928918 4.441168 34.492618 -0.17448
2004-07-14 10:00:49 51°12.678 2°37.855 16.92638 4.440852 34.493643 -0.208189
2004-07-14 10:01:49 51°12.511 2°37.683 16.924181 4.440113 34.488482 -0.309317
2004-07-14 10:02:49 51°12.344 2°37.511 16.920501 4.439797 34.488248 -0.208189
2004-07-14 10:03:53 51°12.165 2°37.328 16.915679 4.43927 34.487439 -0.343027
2004-07-14 10:04:53 51°11.998 2°37.157 16.908953 4.438848 34.491957 -0.376736
2004-07-14 10:05:53 51°11.831 2°36.983 16.898081 4.438426 34.492066 -0.376736
2004-07-14 10:06:58 51°11.652 2°36.798 16.896811 4.438426 34.494586 -0.410446
2004-07-14 10:07:58 51°11.485 2°36.623 16.89825 4.438426 34.497737 -0.410446
2004-07-14 10:08:57 51°11.322 2°36.453 16.894484 4.43811 34.496244 -0.410446
2004-07-14 10:09:57 51°11.156 2°36.28 16.894569 4.438532 34.500545 -0.410446
2004-07-14 10:10:57 51°10.989 2°36.108 16.889068 4.438215 34.499683 -0.376736
2004-07-14 10:12:04 51°10.806 2°35.909 16.875356 4.437793 34.503576 -0.309317
2004-07-14 10:13:03 51°10.649 2°35.727 16.859779 4.437055 34.509763 -0.343027
2004-07-14 10:14:01 51°10.496 2°35.548 16.854063 4.436317 34.511538 -0.309317
2004-07-14 10:15:09 51°10.314 2°35.342 16.859355 4.43579 34.509469 -0.376736
2004-07-14 10:16:09 51°10.151 2°35.159 16.861387 4.436001 34.512569 -0.309317
2004-07-14 10:17:09 51°9.991 2°34.976 16.850634 4.436317 34.5128 -0.14077
2004-07-14 10:18:08 51°9.834 2°34.794 16.85038 4.435895 34.51607 -0.14077
2004-07-14 10:19:08 51°9.675 2°34.614 16.825691 4.43579 34.527784 -0.17448
2004-07-14 10:20:08 51°9.519 2°34.438 16.87324 4.436001 34.53215 -0.17448
2004-07-14 10:21:10 51°9.352 2°34.27 16.889195 4.437899 34.49882 -0.039642
2004-07-14 10:22:09 51°9.178 2°34.155 16.85309 4.438004 34.509196 0.095195
2004-07-14 10:23:09 51°8.994 2°34.071 16.813619 4.43579 34.524625 0.196324
2004-07-14 10:24:09 51°8.802 2°34.102 16.856773 4.43463 34.52336 0.128905
2004-07-14 10:25:10 51°8.67 2°34.158 16.868922 4.436739 34.507639 0.128905
2004-07-14 10:26:10 51°8.569 2°34.173 16.913268 4.437266 34.500877 0.128905
2004-07-14 10:27:10 51°8.537 2°34.115 16.954922 4.439164 34.467644 0.095195
2004-07-14 10:28:10 51°8.556 2°34.123 16.964814 4.440113 34.460178 0.128905
2004-07-14 10:29:16 51°8.58 2°34.169 16.972211 4.440429 34.456644 0.196324
2004-07-14 10:30:16 51°8.602 2°34.214 16.977494 4.441484 34.462666 0.263742
2004-07-14 10:31:16 51°8.624 2°34.259 16.989157 4.442855 34.458874 0.230033
2004-07-14 10:32:16 51°8.655 2°34.299 16.980368 4.442538 34.460522 0.196324
2004-07-14 10:33:16 51°8.712 2°34.393 16.966336 4.442327 34.461202 0.196324
2004-07-14 10:34:15 51°8.687 2°34.511 16.957924 4.441906 34.473244 0.230033
2004-07-14 10:35:16 51°8.638 2°34.514 16.971239 4.441484 34.463294 0.230033
2004-07-14 10:36:18 51°8.615 2°34.47 16.979353 4.44064 34.449684 0.196324
2004-07-14 10:37:24 51°8.594 2°34.438 16.981213 4.440534 34.446257 0.331161
2004-07-14 10:38:23 51°8.582 2°34.409 16.983622 4.441378 34.450446 0.297452
2004-07-14 10:39:24 51°8.572 2°34.371 16.983833 4.441484 34.45199 0.331161
2004-07-14 10:40:24 51°8.556 2°34.315 16.983917 4.441484 34.45199 0.331161
2004-07-14 10:41:24 51°8.532 2°34.253 16.982354 4.441062 34.450837 0.297452
2004-07-14 10:42:24 51°8.514 2°34.194 16.981044 4.441062 34.451465 0.331161
2004-07-14 10:43:24 51°8.499 2°34.146 16.980537 4.441062 34.452093 0.263742
2004-07-14 10:44:24 51°8.481 2°34.092 16.980199 4.441167 34.453009 0.331161
2004-07-14 10:45:24 51°8.461 2°34.035 16.980199 4.440956 34.452433 0.297452
2004-07-14 10:46:24 51°8.441 2°33.968 16.973859 4.440956 34.451805 0.297452
2004-07-14 10:47:24 51°8.42 2°33.904 16.96883 4.44064 34.452824 0.263742
2004-07-14 10:48:24 51°8.399 2°33.849 16.9679 4.440007 34.449839 0.230033
2004-07-14 10:49:24 51°8.381 2°33.799 16.966251 4.43948 34.448398 0.230033
2004-07-14 10:50:24 51°8.363 2°33.746 16.961094 4.438742 34.445124 0.263742
2004-07-14 10:51:24 51°8.344 2°33.695 16.955092 4.438109 34.442766 0.230033
2004-07-14 10:52:24 51°8.325 2°33.64 16.959699 4.43832 34.445227 0.297452
2004-07-14 10:53:24 51°8.307 2°33.583 16.954753 4.438109 34.445279 0.263742
2004-07-14 10:54:24 51°8.288 2°33.524 16.950822 4.437687 34.444125 0.297452
2004-07-14 10:55:24 51°8.268 2°33.466 16.947397 4.437581 34.445094 0.297452
2004-07-14 10:56:28 51°8.248 2°33.403 16.945833 4.437687 34.449152 0.331161
2004-07-14 10:57:28 51°8.229 2°33.344 16.941731 4.437582 34.450121 0.263742
2004-07-14 10:58:33 51°8.208 2°33.282 16.940167 4.437582 34.453263 0.263742
2004-07-14 10:59:33 51°8.189 2°33.227 16.936742 4.437687 34.45418 0.263742
2004-07-14 11:00:31 51°8.168 2°33.169 16.936826 4.437687 34.457323 0.263742
2004-07-14 11:01:33 51°8.148 2°33.105 16.936445 4.437898 34.459157 0.263742
2004-07-14 11:02:33 51°8.127 2°33.045 16.937926 4.438214 34.461279 0.196324
2004-07-14 11:03:33 51°8.107 2°32.987 16.93763 4.438531 34.464659 0.230033
2004-07-14 11:04:33 51°8.088 2°32.925 16.937587 4.43832 34.464082 0.230033
2004-07-14 11:05:33 51°8.068 2°32.864 16.934289 4.438847 34.469296 0.230033
2004-07-14 11:06:33 51°8.047 2°32.804 16.935177 4.438636 34.468091 0.196324
2004-07-14 11:07:33 51°8.029 2°32.744 16.932132 4.438847 34.469925 0.162614
2004-07-14 11:08:32 51°8.011 2°32.684 16.929764 4.438847 34.470554 0.196324
2004-07-14 11:09:33 51°7.992 2°32.619 16.928326 4.439269 34.476739 0.162614
2004-07-14 11:10:33 51°7.971 2°32.556 16.925958 4.439164 34.47708 0.162614
2004-07-14 11:11:33 51°7.948 2°32.497 16.920375 4.439269 34.482403 0.263742
2004-07-14 11:12:33 51°7.923 2°32.437 16.918048 4.439375 34.485838 0.263742
2004-07-14 11:13:33 51°7.898 2°32.376 16.917964 4.439375 34.485838 0.263742
2004-07-14 11:14:33 51°7.872 2°32.316 16.920205 4.43927 34.48681 0.263742
2004-07-14 11:15:32 51°7.847 2°32.26 16.915299 4.438953 34.483428 0.297452
2004-07-14 11:16:33 51°7.824 2°32.201 16.917075 4.438848 34.48377 0.263742
2004-07-14 11:17:33 51°7.803 2°32.14 16.918344 4.439059 34.486864 0.263742
2004-07-14 11:18:33 51°7.779 2°32.081 16.915087 4.438848 34.484399 0.263742
2004-07-14 11:19:31 51°7.759 2°32.028 16.91716 4.438742 34.484112 0.297452
2004-07-14 11:20:33 51°7.738 2°31.972 16.911365 4.43832 34.482961 0.297452
2004-07-14 11:21:33 51°7.734 2°31.948 16.908446 4.438109 34.481755 0.263742
2004-07-14 11:22:33 51°7.738 2°31.927 16.905696 4.437793 34.482151 0.263742
2004-07-14 11:23:33 51°7.707 2°31.941 16.904131 4.43716 34.481054 0.297452
2004-07-14 11:24:33 51°7.704 2°32.053 16.905908 4.43716 34.483573 0.297452
2004-07-14 11:25:33 51°7.741 2°32.149 16.913522 4.437898 34.481809 0.297452
2004-07-14 11:26:33 51°7.772 2°32.24 16.915722 4.437687 34.476826 0.230033
2004-07-14 11:27:33 51°7.797 2°32.325 16.918936 4.437687 34.475567 0.263742
2004-07-14 11:28:33 51°7.821 2°32.409 16.921474 4.437898 34.476143 0.230033
2004-07-14 11:29:33 51°7.847 2°32.489 16.92342 4.437898 34.471108 0.230033
2004-07-14 11:30:33 51°7.878 2°32.562 16.927818 4.437898 34.469221 0.196324
2004-07-14 11:31:33 51°7.908 2°32.639 16.933189 4.437898 34.467962 0.230033
2004-07-14 11:32:33 51°7.935 2°32.719 16.930271 4.438004 34.466363 0.230033
2004-07-14 11:33:33 51°7.963 2°32.797 16.928876 4.438109 34.466022 0.230033
2004-07-14 11:34:33 51°7.993 2°32.871 16.927226 4.437793 34.464529 0.196324
2004-07-14 11:35:33 51°8.025 2°32.943 16.931625 4.437476 34.461149 0.230033
2004-07-14 11:36:33 51°8.056 2°33.018 16.931921 4.437476 34.458005 0.230033
2004-07-14 11:37:33 51°8.086 2°33.094 16.931751 4.43716 34.45714 0.162614
2004-07-14 11:38:33 51°8.113 2°33.17 16.933189 4.437054 34.454966 0.196324
2004-07-14 11:39:33 51°8.142 2°33.246 16.933105 4.43716 34.456511 0.196324
2004-07-14 11:40:33 51°8.17 2°33.322 16.934754 4.437265 34.454913 0.230033
2004-07-14 11:41:33 51°8.196 2°33.4 16.935557 4.437371 34.454573 0.196324
2004-07-14 11:42:33 51°8.218 2°33.477 16.943465 4.437371 34.452687 0.263742
2004-07-14 11:43:32 51°8.243 2°33.55 16.943465 4.432941 34.4123 0.263742
2004-07-14 11:44:33 51°8.269 2°33.629 16.94541 4.437687 34.452923 0.263742
2004-07-14 11:45:33 51°8.294 2°33.708 16.946382 4.438003 34.453159 0.230033
2004-07-14 11:46:38 51°8.321 2°33.795 16.949553 4.437898 34.449728 0.263742
2004-07-14 11:47:43 51°8.351 2°33.878 16.954119 4.438636 34.453631 0.230033
2004-07-14 11:48:43 51°8.382 2°33.955 16.957248 4.439058 34.453527 0.263742
2004-07-14 11:49:43 51°8.411 2°34.035 16.958516 4.439269 34.454103 0.297452
2004-07-14 11:50:43 51°8.436 2°34.113 16.966463 4.439585 34.452455 0.263742
2004-07-14 11:51:43 51°8.461 2°34.192 16.972126 4.439691 34.450858 0.331161
2004-07-14 11:52:43 51°8.485 2°34.27 16.972211 4.440113 34.450127 0.331161
2004-07-14 11:53:43 51°8.511 2°34.347 16.981171 4.440956 34.452433 0.331161
2004-07-14 11:54:43 51°8.538 2°34.424 16.985565 4.441273 34.44953 0.331161
2004-07-14 11:55:43 51°8.566 2°34.5 16.990721 4.442327 34.454295 0.331161
2004-07-14 11:56:48 51°8.594 2°34.582 16.991608 4.44296 34.456023 0.364871
2004-07-14 11:57:48 51°8.618 2°34.661 16.999128 4.443066 34.455684 0.364871
2004-07-14 11:58:52 51°8.644 2°34.746 17.005254 4.443382 34.452782 0.364871
2004-07-14 11:59:53 51°8.671 2°34.825 17.004578 4.443909 34.453596 0.364871
2004-07-14 12:00:53 51°8.701 2°34.896 17.002846 4.443276 34.449357 0.364871
2004-07-14 12:01:53 51°8.733 2°34.961 17.001072 4.44296 34.446611 0.364871
2004-07-14 12:02:53 51°8.768 2°35.022 17.00517 4.442644 34.443864 0.39858
2004-07-14 12:03:53 51°8.806 2°35.083 17.006648 4.442222 34.442711 0.364871
2004-07-14 12:04:53 51°8.856 2°35.138 17.005634 4.442222 34.440829 0.364871
2004-07-14 12:05:53 51°8.902 2°35.172 16.996594 4.442116 34.441795 0.432289
2004-07-14 12:06:53 51°8.939 2°35.195 16.990678 4.4418 34.444695 0.331161
2004-07-14 12:07:53 51°8.969 2°35.213 16.981889 4.440851 34.443983 0.364871
2004-07-14 12:08:52 51°8.993 2°35.231 16.974747 4.439796 34.440473 0.39858
2004-07-14 12:09:53 51°9.015 2°35.252 16.975254 4.439058 34.439082 0.364871
2004-07-14 12:10:53 51°9.036 2°35.275 16.983706 4.43948 34.437725 0.331161
2004-07-14 12:11:53 51°9.055 2°35.299 16.98303 4.440323 34.440659 0.364871
2004-07-14 12:12:53 51°9.074 2°35.327 16.978846 4.440007 34.441049 0.331161
2004-07-14 12:13:53 51°9.093 2°35.358 16.964603 4.439374 34.439947 0.297452
2004-07-14 12:14:53 51°9.117 2°35.384 16.966928 4.438425 34.440491 0.263742
2004-07-14 12:15:53 51°9.144 2°35.395 16.975423 4.439374 34.44183 0.263742
2004-07-14 12:16:58 51°9.173 2°35.385 16.960418 4.439058 34.440337 0.263742
2004-07-14 12:18:00 51°9.197 2°35.367 16.955303 4.438847 34.450437 0.230033
2004-07-14 12:18:58 51°9.218 2°35.348 16.951879 4.438742 34.452034 0.263742
2004-07-14 12:20:00 51°9.241 2°35.323 16.942492 4.439375 34.465705 0.297452
2004-07-14 12:21:00 51°9.256 2°35.294 16.935135 4.43948 34.471653 0.297452
2004-07-14 12:21:59 51°9.263 2°35.267 16.930356 4.439164 34.476451 0.331161
2004-07-14 12:22:59 51°9.261 2°35.247 16.930737 4.439269 34.475481 0.263742
2004-07-14 12:24:00 51°9.244 2°35.252 16.934289 4.439586 34.477603 0.331161
2004-07-14 12:25:00 51°9.219 2°35.293 16.930271 4.440113 34.479671 0.331161
2004-07-14 12:26:00 51°9.167 2°35.338 16.929975 4.440008 34.4819 0.297452
2004-07-14 12:26:58 51°9.082 2°35.387 16.938687 4.43948 34.475427 0.230033
2004-07-14 12:27:59 51°8.979 2°35.44 16.95953 4.43832 34.45151 0.263742
2004-07-14 12:29:00 51°8.877 2°35.518 16.985185 4.439269 34.444053 0.331161
2004-07-14 12:30:00 51°8.855 2°35.663 17.028654 4.440956 34.433606 0.432289
2004-07-14 12:31:00 51°8.867 2°35.763 17.049766 4.443909 34.426013 0.668255
2004-07-14 12:32:00 51°8.883 2°35.848 17.062683 4.445385 34.425042 0.803093
2004-07-14 12:33:00 51°8.898 2°35.927 17.071209 4.446018 34.422391 1.005349
2004-07-14 12:34:01 51°8.914 2°36.013 17.080113 4.446756 34.421282 1.005349
2004-07-14 12:34:59 51°8.928 2°36.101 17.087793 4.447811 34.421039 1.039059
2004-07-14 12:35:59 51°8.941 2°36.189 17.098467 4.44876 34.420508 1.106477
2004-07-14 12:37:00 51°8.955 2°36.269 17.103234 4.449287 34.420075 1.106477
2004-07-14 12:38:00 51°8.967 2°36.345 17.106609 4.449498 34.418152 1.140187
2004-07-14 12:38:59 51°8.975 2°36.419 17.117407 4.450236 34.418297 1.173896
2004-07-14 12:39:59 51°8.986 2°36.497 17.11766 4.450869 34.420652 1.241315
2004-07-14 12:41:00 51°8.996 2°36.589 17.118461 4.451396 34.42022 1.342443
2004-07-14 12:42:00 51°9.009 2°36.676 17.116732 4.451396 34.42022 1.376153
2004-07-14 12:43:01 51°9.023 2°36.76 17.112177 4.45108 34.421854 1.477281
2004-07-14 12:44:00 51°9.031 2°36.84 17.106736 4.450447 34.422623 1.409862
2004-07-14 12:45:00 51°9.034 2°36.919 17.104795 4.450553 34.425411 1.308734
2004-07-14 12:46:00 51°9.046 2°37.004 17.1072 4.450553 34.427287 1.409862
2004-07-14 12:47:00 51°9.063 2°37.092 17.103487 4.450447 34.426373 1.308734
2004-07-14 12:48:00 51°9.075 2°37.178 17.099649 4.450236 34.428923 1.275024
2004-07-14 12:49:01 51°9.089 2°37.259 17.100492 4.450342 34.429836 1.241315
2004-07-14 12:49:58 51°9.1 2°37.335 17.104922 4.450869 34.431903 1.207606
2004-07-14 12:51:00 51°9.116 2°37.416 17.10952 4.451397 34.432719 1.207606
2004-07-14 12:52:00 51°9.135 2°37.496 17.113316 4.452135 34.435362 1.241315
2004-07-14 12:53:00 51°9.15 2°37.58 17.114497 4.452346 34.436564 1.140187
2004-07-14 12:54:00 51°9.166 2°37.661 17.119052 4.45319 34.437619 1.275024
2004-07-14 12:55:00 51°9.183 2°37.743 17.123311 4.453822 34.439973 1.241315
2004-07-14 12:56:00 51°9.198 2°37.823 17.122426 4.453822 34.439973 1.140187
2004-07-14 12:57:00 51°9.214 2°37.904 17.120865 4.453822 34.439973 1.140187
2004-07-14 12:58:00 51°9.225 2°37.984 17.121582 4.453717 34.43781 1.106477
2004-07-14 12:59:00 51°9.242 2°38.064 17.119136 4.453928 34.442761 1.140187
2004-07-14 13:00:00 51°9.26 2°38.145 17.117112 4.453611 34.441897 1.140187
2004-07-14 13:01:03 51°9.28 2°38.227 17.11108 4.453295 34.441658 1.106477
2004-07-14 13:02:03 51°9.304 2°38.304 17.114117 4.453506 34.444735 1.005349
2004-07-14 13:03:03 51°9.326 2°38.381 17.11302 4.453401 34.444447 1.039059
2004-07-14 13:04:05 51°9.357 2°38.455 17.119431 4.45319 34.440745 1.140187
2004-07-14 13:05:05 51°9.39 2°38.538 17.122173 4.453506 34.440984 1.106477
2004-07-14 13:06:05 51°9.421 2°38.627 17.12795 4.453928 34.440886 1.072768
2004-07-14 13:07:05 51°9.453 2°38.718 17.130986 4.45435 34.440163 1.106477
2004-07-14 13:08:05 51°9.494 2°38.786 17.143087 4.455299 34.443381 1.106477
2004-07-14 13:09:05 51°9.534 2°38.818 17.153837 4.456248 34.442225 1.173896
2004-07-14 13:10:05 51°9.568 2°38.833 17.165007 4.458041 34.447746 1.342443
2004-07-14 13:11:05 51°9.595 2°38.84 17.171877 4.458779 34.446015 1.173896
2004-07-14 13:12:05 51°9.616 2°38.844 17.187552 4.459834 34.444525 1.173896
2004-07-14 13:13:04 51°9.633 2°38.848 17.200485 4.461416 34.447597 1.207606
2004-07-14 13:14:05 51°9.649 2°38.854 17.214722 4.462576 34.447021 1.241315
2004-07-14 13:15:02 51°9.664 2°38.864 17.239651 4.464369 34.445057 1.275024
2004-07-14 13:16:08 51°9.68 2°38.875 17.24685 4.466056 34.446547 1.173896
2004-07-14 13:17:08 51°9.694 2°38.888 17.24525 4.466583 34.446741 1.140187
2004-07-14 13:18:07 51°9.708 2°38.903 17.244745 4.466267 34.444631 1.173896
2004-07-14 13:19:08 51°9.73 2°38.906 17.255479 4.466372 34.444919 1.106477
2004-07-14 13:20:07 51°9.756 2°38.897 17.264654 4.467322 34.445018 1.072768
2004-07-14 13:21:08 51°9.783 2°38.886 17.263097 4.467954 34.444255 1.106477
2004-07-14 13:22:08 51°9.811 2°38.873 17.260782 4.467743 34.443057 1.140187
2004-07-14 13:23:08 51°9.836 2°38.856 17.255731 4.467111 34.440706 1.106477
2004-07-14 13:24:08 51°9.861 2°38.839 17.249586 4.466794 34.441711 1.173896
2004-07-14 13:25:08 51°9.885 2°38.82 17.238303 4.465318 34.438302 1.173896
2004-07-14 13:26:07 51°9.907 2°38.802 17.230556 4.464685 34.438443 1.207606
2004-07-14 13:27:07 51°9.929 2°38.79 17.226219 4.463841 34.436762 1.241315
2004-07-14 13:28:07 51°9.949 2°38.794 17.22563 4.463419 34.436856 1.342443
2004-07-14 13:29:08 51°9.966 2°38.804 17.237798 4.463736 34.437097 1.409862
2004-07-14 13:30:08 51°9.981 2°38.821 17.239903 4.46479 34.437485 1.308734
2004-07-14 13:31:13 51°9.995 2°38.842 17.23043 4.464158 34.434511 1.376153
2004-07-14 13:32:23 51°10.012 2°38.864 17.22445 4.463419 34.434363 1.376153
2004-07-14 13:33:28 51°10.058 2°38.866 17.216238 4.462998 34.43508 1.342443
2004-07-14 13:34:28 51°10.15 2°38.912 17.203476 4.462365 34.435222 1.443571
2004-07-14 13:35:28 51°10.228 2°39.123 17.162183 4.459517 34.431183 1.477281
2004-07-14 13:36:28 51°10.286 2°39.444 17.143172 4.455615 34.427382 1.376153
2004-07-14 13:37:28 51°10.345 2°39.794 17.177144 4.455931 34.423254 1.578409
2004-07-14 13:38:27 51°10.404 2°40.139 17.189195 4.458357 34.426142 1.578409
2004-07-14 13:39:28 51°10.462 2°40.495 17.191344 4.457513 34.414483 1.477281
2004-07-14 13:40:28 51°10.52 2°40.844 17.193492 4.455931 34.400183 1.005349
2004-07-14 13:41:28 51°10.574 2°41.194 17.192186 4.454032 34.381905 0.634546
2004-07-14 13:42:29 51°10.645 2°41.541 17.196652 4.453505 34.376725 0.465999
2004-07-14 13:43:28 51°10.747 2°41.861 17.203013 4.453083 34.366855 0.432289
2004-07-14 13:44:28 51°10.843 2°42.19 17.200907 4.453294 34.366811 0.39858
2004-07-14 13:45:28 51°10.934 2°42.519 17.206678 4.451923 34.349988 0.39858
2004-07-14 13:46:28 51°11.019 2°42.856 17.210342 4.45129 34.342035 0.331161
2004-07-14 13:47:28 51°11.098 2°43.199 17.210258 4.450551 34.335658 0.331161
2004-07-14 13:48:28 51°11.175 2°43.54 17.212195 4.451501 34.341371 0.331161
2004-07-14 13:49:28 51°11.256 2°43.881 17.20672 4.451395 34.341081 0.297452
2004-07-14 13:50:27 51°11.332 2°44.218 17.202929 4.451184 34.341746 0.263742
2004-07-14 13:51:28 51°11.408 2°44.569 17.198716 4.449919 34.335164 0.263742
2004-07-14 13:52:28 51°11.486 2°44.91 17.197789 4.449391 34.333095 0.230033
2004-07-14 13:53:28 51°11.561 2°45.254 17.19859 4.448969 34.330693 0.230033
2004-07-14 13:54:28 51°11.635 2°45.596 17.208826 4.448442 34.321787 0.196324
2004-07-14 13:55:28 51°11.713 2°45.934 17.224493 4.449918 34.322737 0.162614
2004-07-14 13:56:28 51°11.794 2°46.272 17.243903 4.451184 34.321866 0.128905
2004-07-14 13:57:27 51°11.869 2°46.604 17.264402 4.453399 34.321743 0.162614
2004-07-14 13:58:27 51°11.949 2°46.94 17.277363 4.45477 34.321166 0.196324
2004-07-14 13:59:27 51°12.028 2°47.278 17.286241 4.455824 34.320342 0.196324
2004-07-14 14:00:28 51°12.12 2°47.611 17.295286 4.456984 34.319189 0.230033
2004-07-14 14:01:28 51°12.213 2°47.936 17.305213 4.457511 34.31692 0.263742
2004-07-14 14:02:28 51°12.309 2°48.258 17.303236 4.458039 34.31589 0.331161
2004-07-14 14:03:27 51°12.404 2°48.574 17.311564 4.457828 34.311595 0.297452
2004-07-14 14:04:27 51°12.503 2°48.897 17.317115 4.458355 34.313044 0.263742
2004-07-14 14:05:28 51°12.603 2°49.223 17.322414 4.4573 34.300242 0.263742
2004-07-14 14:06:28 51°12.699 2°49.544 17.325862 4.455613 34.28261 0.364871
2004-07-14 14:07:28 51°12.795 2°49.872 17.319723 4.453714 34.271821 0.364871
2004-07-14 14:08:27 51°12.888 2°50.191 17.309419 4.449495 34.239185 0.567127
2004-07-14 14:09:28 51°12.983 2°50.52 17.312195 4.444116 34.194702 0.600836
2004-07-14 14:10:28 51°13.093 2°50.828 17.312321 4.438104 34.146007 0.668255
2004-07-14 14:11:28 51°13.212 2°51.134 17.318882 4.434307 34.110847 0.634546
2004-07-14 14:12:29 51°13.33 2°51.445 17.31434 4.432303 34.093594 0.668255
2004-07-14 14:13:29 51°13.453 2°51.738 17.314802 4.430615 34.07968 0.499708
2004-07-14 14:14:29 51°13.572 2°52.041 17.315685 4.429666 34.069664 0.465999
2004-07-14 14:15:28 51°13.689 2°52.333 17.309713 4.429666 34.069049 0.432289
2004-07-14 14:16:29 51°13.808 2°52.638 17.313078 4.428822 34.063015 0.465999
2004-07-14 14:17:29 51°13.931 2°52.937 17.30904 4.428611 34.061814 0.432289
2004-07-14 14:18:29 51°14.038 2°53.213 17.312573 4.427451 34.053671 0.432289
2004-07-14 14:19:29 51°14.063 2°53.379 17.294739 4.424919 34.039253 0.432289
2004-07-14 14:20:29 51°14.094 2°53.476 17.353482 4.424814 34.041417 -0.444155
2004-07-14 14:21:29 51°14.119 2°53.53 17.381134 4.424392 34.03717 -0.444155
2004-07-14 14:22:29 51°14.134 2°53.561 17.483532 4.424498 34.036849 -0.477864
2004-07-14 14:23:29 51°14.152 2°53.581 17.573461 4.424708 34.036208 -0.477864
2004-07-14 14:24:29 51°14.168 2°53.594 17.642935 4.424708 34.036208 -0.444155
2004-07-14 14:25:29 51°14.18 2°53.604 17.727767 4.42513 34.03984 -0.477864
2004-07-14 14:26:29 51°14.182 2°53.621 17.808945 4.425341 34.039199 -0.477864
2004-07-14 14:27:29 51°14.174 2°53.642 17.885816 4.425763 34.039759 -0.444155
2004-07-14 14:28:29 51°14.171 2°53.661 17.974641 4.426185 34.040319 -0.444155
2004-07-14 14:29:29 51°14.176 2°53.681 18.055864 4.426607 34.042107 -0.477864
2004-07-14 14:30:30 51°14.184 2°53.698 18.139111 4.427134 34.042347 -0.477864
2004-07-14 14:31:28 51°14.192 2°53.712 18.217526 4.427556 34.042907 -0.477864
2004-07-14 14:32:28 51°14.221 2°53.719 18.283703 4.428189 34.045282 -0.477864
2004-07-14 14:33:29 51°14.283 2°53.795 18.357813 4.428716 34.046749 -0.477864
2004-07-14 14:34:28 51°14.319 2°54.059 18.44612 4.429243 34.04883 -0.477864
2004-07-14 14:35:29 51°14.371 2°54.38 18.509723 4.429665 34.050618 -0.444155
2004-07-14 14:36:29 51°14.419 2°54.693 18.589208 4.430298 34.052992 -0.477864
2004-07-14 14:37:29 51°14.376 2°55.001 18.667407 4.43072 34.053552 -0.444155
2004-07-14 14:38:29 51°14.267 2°55.258 18.736618 4.431247 34.054404 -0.444155
2004-07-14 14:39:29 51°14.134 2°55.411 18.796911 4.431775 34.057099 -0.444155
2004-07-14 14:40:29 51°14.016 2°55.498 18.859003 4.432302 34.058565 -0.477864
2004-07-14 14:41:29 51°13.904 2°55.581 18.925395 4.432724 34.059738 -0.477864
2004-07-14 14:42:29 51°13.794 2°55.664 18.988029 4.433251 34.061204 -0.444155
2004-07-14 14:43:28 51°13.712 2°55.778 19.051387 4.433778 34.06267 -0.477864
2004-07-14 14:44:29 51°13.665 2°55.892 19.116244 4.434411 34.065657 -0.444155